createdAt,value
2024-04-09T00:02:06.295Z,12.69
2024-04-09T00:04:32.839Z,12.65
2024-04-09T00:07:01.573Z,12.63
2024-04-09T00:09:30.028Z,12.51
2024-04-09T00:11:59.201Z,12.43
2024-04-09T00:14:26.101Z,12.48
2024-04-09T00:16:56.690Z,12.75
2024-04-09T00:19:24.786Z,13.37
2024-04-09T00:21:54.256Z,14.11
2024-04-09T00:24:22.444Z,15.10
2024-04-09T00:26:51.398Z,15.82
2024-04-09T00:29:18.020Z,16.21
2024-04-09T00:31:46.647Z,16.52
2024-04-09T00:34:16.236Z,17.16
2024-04-09T00:36:45.778Z,17.53
2024-04-09T00:39:22.879Z,17.79
2024-04-09T00:41:51.994Z,18.12
2024-04-09T00:44:19.101Z,18.24
2024-04-09T00:46:49.592Z,18.39
2024-04-09T00:49:19.874Z,18.65
2024-04-09T00:51:52.982Z,18.69
2024-04-09T00:54:20.068Z,18.53
2024-04-09T00:56:50.543Z,18.51
2024-04-09T00:59:17.210Z,18.49
2024-04-09T01:01:47.059Z,18.42
2024-04-09T01:04:13.560Z,18.35
2024-04-09T01:06:44.568Z,18.21
2024-04-09T01:09:11.033Z,18.09
2024-04-09T01:11:39.511Z,17.88
2024-04-09T01:14:06.044Z,17.73
2024-04-09T01:16:34.708Z,17.65
2024-04-09T01:19:01.319Z,17.51
2024-04-09T01:21:29.885Z,17.46
2024-04-09T01:23:59.532Z,17.40
2024-04-09T01:26:28.096Z,17.28
2024-04-09T01:28:54.920Z,17.32
2024-04-09T01:31:24.782Z,17.39
2024-04-09T01:33:52.735Z,17.46
2024-04-09T01:36:21.907Z,17.38
2024-04-09T01:38:50.044Z,17.40
2024-04-09T01:41:21.510Z,17.34
2024-04-09T01:43:47.886Z,17.30
2024-04-09T01:46:17.309Z,17.30
2024-04-09T01:48:44.059Z,17.06
2024-04-09T01:51:13.605Z,17.09
2024-04-09T01:53:43.321Z,17.14
2024-04-09T01:56:11.860Z,17.12
2024-04-09T01:58:40.270Z,16.89
2024-04-09T02:01:10.658Z,16.64
2024-04-09T02:03:39.106Z,16.58
2024-04-09T02:06:08.404Z,16.18
2024-04-09T02:08:37.959Z,15.91
2024-04-09T02:11:07.007Z,16.12
2024-04-09T02:13:33.360Z,16.31
2024-04-09T02:16:09.288Z,16.46
2024-04-09T02:18:36.505Z,16.55
2024-04-09T02:21:08.134Z,16.77
2024-04-09T02:23:34.590Z,16.77
2024-04-09T02:26:02.967Z,16.67
2024-04-09T02:28:29.477Z,16.33
2024-04-09T02:30:58.304Z,16.24
2024-04-09T02:33:27.271Z,16.55
2024-04-09T02:35:59.109Z,16.92
2024-04-09T02:38:26.518Z,17.29
2024-04-09T02:40:55.395Z,17.64
2024-04-09T02:43:22.222Z,17.57
2024-04-09T02:45:51.153Z,17.68
2024-04-09T02:48:18.038Z,17.58
2024-04-09T02:50:54.980Z,17.30
2024-04-09T02:53:23.247Z,16.69
2024-04-09T02:56:01.903Z,16.72
2024-04-09T02:58:28.728Z,16.34
2024-04-09T03:00:57.702Z,16.13
2024-04-09T03:03:24.440Z,15.79
2024-04-09T03:05:54.986Z,15.39
2024-04-09T03:08:21.410Z,15.75
2024-04-09T03:10:49.861Z,16.05
2024-04-09T03:13:16.224Z,16.53
2024-04-09T03:15:44.909Z,17.01
2024-04-09T03:18:11.616Z,17.30
2024-04-09T03:20:41.207Z,17.78
2024-04-09T03:23:09.826Z,18.07
2024-04-09T03:25:38.292Z,18.11
2024-04-09T03:28:04.997Z,18.38
2024-04-09T03:30:33.632Z,18.51
2024-04-09T03:33:02.324Z,18.62
2024-04-09T03:35:31.236Z,18.89
2024-04-09T03:37:59.622Z,19.03
2024-04-09T03:40:30.072Z,19.08
2024-04-09T03:42:56.464Z,19.05
2024-04-09T03:45:24.926Z,19.12
2024-04-09T03:47:51.447Z,19.12
2024-04-09T03:50:19.838Z,19.18
2024-04-09T03:52:46.280Z,19.09
2024-04-09T03:55:14.841Z,19.21
2024-04-09T03:57:43.254Z,19.32
2024-04-09T04:00:12.997Z,19.22
2024-04-09T04:02:40.159Z,19.26
2024-04-09T04:05:10.374Z,19.15
2024-04-09T04:07:36.846Z,18.97
2024-04-09T04:10:07.297Z,18.92
2024-04-09T04:12:36.129Z,18.86
2024-04-09T04:15:07.448Z,18.81
2024-04-09T04:17:34.012Z,18.81
2024-04-09T04:20:02.573Z,18.93
2024-04-09T04:22:29.930Z,18.84
2024-04-09T04:24:58.411Z,18.84
2024-04-09T04:27:24.870Z,18.76
2024-04-09T04:29:53.370Z,18.74
2024-04-09T04:32:21.892Z,18.70
2024-04-09T04:34:53.995Z,18.65
2024-04-09T04:37:20.423Z,18.64
2024-04-09T04:39:48.845Z,18.57
2024-04-09T04:42:16.422Z,18.55
2024-04-09T04:44:44.988Z,18.47
2024-04-09T04:47:11.387Z,18.40
2024-04-09T04:49:41.977Z,18.41
2024-04-09T04:52:08.519Z,18.48
2024-04-09T04:54:37.036Z,18.57
2024-04-09T04:57:03.823Z,18.51
2024-04-09T04:59:32.351Z,18.51
2024-04-09T05:01:59.322Z,18.48
2024-04-09T05:04:27.869Z,18.58
2024-04-09T05:06:56.353Z,18.64
2024-04-09T05:09:24.850Z,18.67
2024-04-09T05:11:51.309Z,18.75
2024-04-09T05:14:19.763Z,18.80
2024-04-09T05:16:46.137Z,18.88
2024-04-09T05:19:14.781Z,18.97
2024-04-09T05:21:41.363Z,18.97
2024-04-09T05:24:13.098Z,19.14
2024-04-09T05:26:39.501Z,19.21
2024-04-09T05:29:08.430Z,19.23
2024-04-09T05:31:34.797Z,19.41
2024-04-09T05:34:04.117Z,19.47
2024-04-09T05:36:32.966Z,19.53
2024-04-09T05:39:01.529Z,19.56
2024-04-09T05:41:29.981Z,19.65
2024-04-09T05:43:58.667Z,19.67
2024-04-09T05:46:25.023Z,19.78
2024-04-09T05:48:53.578Z,19.81
2024-04-09T05:51:20.047Z,19.89
2024-04-09T05:53:48.473Z,19.89
2024-04-09T05:56:14.784Z,19.98
2024-04-09T05:58:45.310Z,19.98
2024-04-09T06:01:11.865Z,20.01
2024-04-09T06:03:40.570Z,20.05
2024-04-09T06:06:07.093Z,20.08
2024-04-09T06:08:35.513Z,20.07
2024-04-09T06:11:04.053Z,20.06
2024-04-09T06:13:32.492Z,20.11
2024-04-09T06:16:00.828Z,20.20
2024-04-09T06:18:29.350Z,20.26
2024-04-09T06:20:55.832Z,20.29
2024-04-09T06:23:24.943Z,20.34
2024-04-09T06:25:54.500Z,20.42
2024-04-09T06:28:22.968Z,20.55
2024-04-09T06:30:49.572Z,20.62
2024-04-09T06:33:20.238Z,20.66
2024-04-09T06:35:46.851Z,20.76
2024-04-09T06:38:15.248Z,20.82
2024-04-09T06:40:42.318Z,20.90
2024-04-09T06:43:11.249Z,20.89
2024-04-09T06:45:37.612Z,20.89
2024-04-09T06:48:07.318Z,20.77
2024-04-09T06:50:36.170Z,20.69
2024-04-09T06:53:04.632Z,20.64
2024-04-09T06:55:31.041Z,20.51
2024-04-09T06:57:59.403Z,20.36
2024-04-09T07:00:27.071Z,20.17
2024-04-09T07:02:55.582Z,20.06
2024-04-09T07:05:22.235Z,19.86
2024-04-09T07:07:52.701Z,19.84
2024-04-09T07:10:19.092Z,19.81
2024-04-09T07:12:47.608Z,19.71
2024-04-09T07:15:15.157Z,19.62
2024-04-09T07:17:43.671Z,19.61
2024-04-09T07:20:10.132Z,19.67
2024-04-09T07:22:38.546Z,19.59
2024-04-09T07:25:08.200Z,19.58
2024-04-09T07:27:36.891Z,19.53
2024-04-09T07:30:04.305Z,19.49
2024-04-09T07:32:32.839Z,19.48
2024-04-09T07:34:59.530Z,19.48
2024-04-09T07:37:27.978Z,19.46
2024-04-09T07:39:54.371Z,19.44
2024-04-09T07:42:25.175Z,19.47
2024-04-09T07:44:51.611Z,19.50
2024-04-09T07:47:21.711Z,19.54
2024-04-09T07:49:49.942Z,19.62
2024-04-09T07:52:19.520Z,19.72
2024-04-09T07:54:46.088Z,19.81
2024-04-09T07:57:15.312Z,19.92
2024-04-09T07:59:44.386Z,19.88
2024-04-09T08:02:12.831Z,19.91
2024-04-09T08:04:39.845Z,20.05
2024-04-09T08:07:08.466Z,20.09
2024-04-09T08:09:35.869Z,20.13
2024-04-09T08:12:05.174Z,20.12
2024-04-09T08:14:32.054Z,20.22
2024-04-09T08:17:02.602Z,20.22
2024-04-09T08:19:30.609Z,20.22
2024-04-09T08:21:59.221Z,20.28
2024-04-09T08:24:25.765Z,20.22
2024-04-09T08:26:54.186Z,20.26
2024-04-09T08:29:20.513Z,20.33
2024-04-09T08:31:50.856Z,20.36
2024-04-09T08:34:20.568Z,20.28
2024-04-09T08:36:50.113Z,20.30
2024-04-09T08:39:16.728Z,20.37
2024-04-09T08:41:45.226Z,20.25
2024-04-09T08:44:13.158Z,20.32
2024-04-09T08:46:41.705Z,20.21
2024-04-09T08:49:09.809Z,20.38
2024-04-09T08:51:43.074Z,20.44
2024-04-09T08:54:09.756Z,20.36
2024-04-09T08:56:38.240Z,20.39
2024-04-09T08:59:05.134Z,20.40
2024-04-09T09:01:33.984Z,20.42
2024-04-09T09:04:00.786Z,20.41
2024-04-09T09:06:30.736Z,20.48
2024-04-09T09:08:59.250Z,20.30
2024-04-09T09:11:27.667Z,20.17
2024-04-09T09:14:04.820Z,20.24
2024-04-09T09:16:34.002Z,20.25
2024-04-09T09:19:05.008Z,20.22
2024-04-09T09:21:34.107Z,20.42
2024-04-09T09:24:02.813Z,20.52
2024-04-09T09:26:31.309Z,20.44
2024-04-09T09:29:04.651Z,20.13
2024-04-09T09:31:34.289Z,20.34
2024-04-09T09:34:07.938Z,20.47
2024-04-09T09:36:39.489Z,20.55
2024-04-09T09:39:09.878Z,20.69
2024-04-09T09:41:39.518Z,20.57
2024-04-09T09:44:08.974Z,20.66
2024-04-09T09:46:39.177Z,20.56
2024-04-09T09:49:07.059Z,20.25
2024-04-09T09:51:35.611Z,20.08
2024-04-09T09:54:02.654Z,20.08
2024-04-09T09:56:33.612Z,20.34
2024-04-09T09:59:00.936Z,20.35
2024-04-09T10:01:30.449Z,20.30
2024-04-09T10:03:57.105Z,20.34
2024-04-09T10:06:29.822Z,20.23
2024-04-09T10:08:56.297Z,20.27
2024-04-09T10:11:24.992Z,20.23
2024-04-09T10:13:53.535Z,20.50
2024-04-09T10:16:25.000Z,20.37
2024-04-09T10:18:52.234Z,20.54
2024-04-09T10:21:28.913Z,20.48
2024-04-09T10:23:59.617Z,20.56
2024-04-09T10:26:29.416Z,20.58
2024-04-09T10:29:04.591Z,20.71
2024-04-09T10:31:33.178Z,20.78
2024-04-09T10:33:59.707Z,21.03
2024-04-09T10:36:28.326Z,21.16
2024-04-09T10:38:56.452Z,21.32
2024-04-09T10:41:24.810Z,21.37
2024-04-09T10:43:51.140Z,21.24
2024-04-09T10:46:21.760Z,20.89
2024-04-09T10:48:49.129Z,21.05
2024-04-09T10:51:19.934Z,21.06
2024-04-09T10:53:48.868Z,20.86
2024-04-09T10:56:17.334Z,20.93
2024-04-09T10:58:44.630Z,21.12
2024-04-09T11:01:16.550Z,21.27
2024-04-09T11:03:45.561Z,21.26
2024-04-09T11:06:16.701Z,21.34
2024-04-09T11:08:43.367Z,21.35
2024-04-09T11:11:12.347Z,21.58
2024-04-09T11:13:39.403Z,21.79
2024-04-09T11:16:07.887Z,22.02
2024-04-09T11:18:34.965Z,21.99
2024-04-09T11:21:06.011Z,21.81
2024-04-09T11:23:33.180Z,22.14
2024-04-09T11:26:03.492Z,22.30
2024-04-09T11:28:31.499Z,22.40
2024-04-09T11:31:04.694Z,22.47
2024-04-09T11:33:31.596Z,22.70
2024-04-09T11:36:01.084Z,22.86
2024-04-09T11:38:32.000Z,22.80
2024-04-09T11:41:00.441Z,22.55
2024-04-09T11:43:26.818Z,22.71
2024-04-09T11:46:01.568Z,22.15
2024-04-09T11:48:28.716Z,22.06
2024-04-09T11:50:57.393Z,21.96
2024-04-09T11:53:24.340Z,21.91
2024-04-09T11:55:56.737Z,22.27
2024-04-09T11:58:23.095Z,22.48
2024-04-09T12:00:51.750Z,22.86
2024-04-09T12:03:18.387Z,22.70
2024-04-09T12:05:47.256Z,22.57
2024-04-09T12:08:13.669Z,22.85
2024-04-09T12:10:42.240Z,23.25
2024-04-09T12:13:10.765Z,23.91
2024-04-09T12:15:39.655Z,23.88
2024-04-09T12:18:06.550Z,23.44
2024-04-09T12:20:35.090Z,22.80
2024-04-09T12:23:01.542Z,21.94
2024-04-09T12:25:30.094Z,21.09
2024-04-09T12:27:56.475Z,20.21
2024-04-09T12:30:27.065Z,19.43
2024-04-09T12:32:53.756Z,19.12
2024-04-09T12:35:23.037Z,19.25
2024-04-09T12:37:50.650Z,19.37
2024-04-09T12:40:19.062Z,18.97
2024-04-09T12:42:45.636Z,19.09
2024-04-09T12:45:14.129Z,18.59
2024-04-09T12:47:42.674Z,18.18
2024-04-09T12:50:14.197Z,17.99
2024-04-09T12:52:40.694Z,17.92
2024-04-09T12:55:10.842Z,17.49
2024-04-09T12:57:37.289Z,17.01
2024-04-09T13:00:22.780Z,16.65
2024-04-09T13:02:57.642Z,16.05
2024-04-09T13:05:26.869Z,15.97
2024-04-09T13:07:53.794Z,15.71
2024-04-09T13:10:22.318Z,15.42
2024-04-09T13:12:49.016Z,15.18
2024-04-09T13:16:47.196Z,14.87
2024-04-09T13:18:06.931Z,14.81
2024-04-09T13:20:35.702Z,14.86
2024-04-09T13:23:03.765Z,14.71
2024-04-09T13:25:32.693Z,14.54
2024-04-09T13:27:59.097Z,14.31
2024-04-09T13:30:28.257Z,14.15
2024-04-09T13:32:54.755Z,14.07
2024-04-09T13:35:25.547Z,14.03
2024-04-09T13:37:51.994Z,13.87
2024-04-09T13:40:20.822Z,13.68
2024-04-09T13:42:47.271Z,13.50
2024-04-09T13:45:16.460Z,13.55
2024-04-09T13:47:45.570Z,13.57
2024-04-09T13:50:17.255Z,13.40
2024-04-09T13:52:46.008Z,13.32
2024-04-09T13:55:14.517Z,13.18
2024-04-09T13:57:41.041Z,12.99
2024-04-09T14:00:12.337Z,12.86
2024-04-09T14:02:39.623Z,12.79
2024-04-09T14:05:10.248Z,12.67
2024-04-09T14:07:36.818Z,12.57
2024-04-09T14:10:08.892Z,12.46
2024-04-09T14:12:35.463Z,12.46
2024-04-09T14:15:06.377Z,12.54
2024-04-09T14:17:35.805Z,12.39
2024-04-09T14:20:08.968Z,12.13
2024-04-09T14:22:35.567Z,12.02
2024-04-09T14:25:08.839Z,11.99
2024-04-09T14:27:35.366Z,11.81
2024-04-09T14:30:06.438Z,11.77
2024-04-09T14:32:33.078Z,11.73
2024-04-09T14:35:02.341Z,11.72
2024-04-09T14:37:28.908Z,11.61
2024-04-09T14:39:57.436Z,11.56
2024-04-09T14:42:25.850Z,11.53
2024-04-09T14:44:54.269Z,11.55
2024-04-09T14:47:21.055Z,11.54
2024-04-09T14:49:49.780Z,11.51
2024-04-09T14:52:16.160Z,11.45
2024-04-09T14:54:44.776Z,11.41
2024-04-09T14:57:11.183Z,11.33
2024-04-09T14:59:42.595Z,11.26
2024-04-09T15:02:11.288Z,11.00
2024-04-09T15:04:40.089Z,10.88
2024-04-09T15:07:06.832Z,10.81
2024-04-09T15:09:39.014Z,10.65
2024-04-09T15:12:06.754Z,10.53
2024-04-09T15:14:35.361Z,10.37
2024-04-09T15:17:04.507Z,10.18
2024-04-09T15:19:33.630Z,10.16
2024-04-09T15:22:00.115Z,10.10
2024-04-09T15:24:28.551Z,10.01
2024-04-09T15:26:54.958Z,10.01
2024-04-09T15:29:24.530Z,9.86
2024-04-09T15:31:51.251Z,9.76
2024-04-09T15:34:21.949Z,9.69
2024-04-09T15:36:48.646Z,9.68
2024-04-09T15:39:17.113Z,9.72
2024-04-09T15:41:43.770Z,9.56
2024-04-09T15:44:13.127Z,9.49
2024-04-09T15:46:39.940Z,9.48
2024-04-09T15:49:08.518Z,9.43
2024-04-09T15:51:37.286Z,9.39
2024-04-09T15:54:27.638Z,9.26
2024-04-09T15:56:54.025Z,9.12
2024-04-09T15:59:22.548Z,8.91
2024-04-09T16:01:49.482Z,8.99
2024-04-09T16:04:18.146Z,8.88
2024-04-09T16:06:47.259Z,8.82
2024-04-09T16:09:16.370Z,8.80
2024-04-09T16:11:43.006Z,8.79
2024-04-09T16:14:11.560Z,8.84
2024-04-09T16:16:39.115Z,8.80
2024-04-09T16:19:10.803Z,8.77
2024-04-09T16:21:40.589Z,8.76
2024-04-09T16:24:09.132Z,8.79
2024-04-09T16:26:37.816Z,8.77
2024-04-09T16:29:04.449Z,8.79
2024-04-09T16:31:32.960Z,8.81
2024-04-09T16:33:59.349Z,8.78
2024-04-09T16:36:27.997Z,8.82
2024-04-09T16:38:54.416Z,8.80
2024-04-09T16:41:25.823Z,8.76
2024-04-09T16:43:54.305Z,8.65
2024-04-09T16:46:23.267Z,8.61
2024-04-09T16:48:50.204Z,8.57
2024-04-09T16:51:18.752Z,8.62
2024-04-09T16:53:45.149Z,8.62
2024-04-09T16:56:13.568Z,8.68
2024-04-09T16:58:42.620Z,8.58
2024-04-09T17:01:11.292Z,8.57
2024-04-09T17:03:37.845Z,8.58
2024-04-09T17:06:06.713Z,8.61
2024-04-09T17:08:33.186Z,8.62
2024-04-09T17:11:02.919Z,8.58
2024-04-09T17:13:30.516Z,8.62
2024-04-09T17:16:01.015Z,8.63
2024-04-09T17:18:27.649Z,8.56
2024-04-09T17:20:56.158Z,8.57
2024-04-09T17:23:24.414Z,8.53
2024-04-09T17:26:01.922Z,8.50
2024-04-09T17:28:39.598Z,8.51
2024-04-09T17:31:10.044Z,8.44
2024-04-09T17:33:49.016Z,8.46
2024-04-09T17:36:15.889Z,8.47
2024-04-09T17:39:01.286Z,8.43
2024-04-09T17:41:33.029Z,8.44
2024-04-09T17:44:22.666Z,8.41
2024-04-09T17:46:58.812Z,8.36
2024-04-09T17:49:43.553Z,8.38
2024-04-09T17:52:17.092Z,8.35
2024-04-09T17:54:54.766Z,8.29
2024-04-09T17:57:40.214Z,8.28
2024-04-09T18:00:24.764Z,8.28
2024-04-09T18:03:14.070Z,8.21
2024-04-09T18:05:46.919Z,8.20
2024-04-09T18:08:13.906Z,8.16
2024-04-09T18:10:44.979Z,8.07
2024-04-09T18:13:11.493Z,7.98
2024-04-09T18:15:39.906Z,7.83
2024-04-09T18:18:08.604Z,7.83
2024-04-09T18:20:37.283Z,7.79
2024-04-09T18:23:04.067Z,7.79
2024-04-09T18:25:33.586Z,7.75
2024-04-09T18:28:00.009Z,7.72
2024-04-09T18:30:28.485Z,7.63
2024-04-09T18:32:57.975Z,7.60
2024-04-09T18:35:31.016Z,7.59
2024-04-09T18:37:57.450Z,7.63
2024-04-09T18:40:25.946Z,7.66
2024-04-09T18:42:52.343Z,7.58
2024-04-09T18:45:20.807Z,7.54
2024-04-09T18:47:47.500Z,7.55
2024-04-09T18:50:16.189Z,7.44
2024-04-09T18:52:44.833Z,7.44
2024-04-09T18:55:13.744Z,7.37
2024-04-09T18:57:40.379Z,7.25
2024-04-09T19:00:11.250Z,7.16
2024-04-09T19:02:38.587Z,7.15
2024-04-09T19:05:07.300Z,7.09
2024-04-09T19:07:33.760Z,6.90
2024-04-09T19:10:05.556Z,6.85
2024-04-09T19:12:34.038Z,6.83
2024-04-09T19:15:00.573Z,6.81
2024-04-09T19:17:29.175Z,6.73
2024-04-09T19:19:55.791Z,6.70
2024-04-09T19:22:24.231Z,6.59
2024-04-09T19:24:50.623Z,6.48
2024-04-09T19:27:21.091Z,6.43
2024-04-09T19:29:47.537Z,6.35
2024-04-09T19:32:16.071Z,6.24
2024-04-09T19:34:42.634Z,6.12
2024-04-09T19:37:11.171Z,6.11
2024-04-09T19:39:37.595Z,6.02
2024-04-09T19:42:06.772Z,5.97
2024-04-09T19:44:35.615Z,5.93
2024-04-09T19:47:04.137Z,5.94
2024-04-09T19:49:30.620Z,5.92
2024-04-09T19:51:59.065Z,5.88
2024-04-09T19:54:25.835Z,5.82
2024-04-09T19:56:54.326Z,5.80
2024-04-09T19:59:20.743Z,5.84
2024-04-09T20:01:51.400Z,5.78
2024-04-09T20:04:20.833Z,5.74
2024-04-09T20:06:49.312Z,5.71
2024-04-09T20:09:15.738Z,5.77
2024-04-09T20:11:44.508Z,5.69
2024-04-09T20:14:11.104Z,5.66
2024-04-09T20:16:39.730Z,5.64
2024-04-09T20:19:08.503Z,5.64
2024-04-09T20:21:37.303Z,5.60
2024-04-09T20:24:04.940Z,5.53
2024-04-09T20:26:33.600Z,5.54
2024-04-09T20:29:03.232Z,5.54
2024-04-09T20:31:38.956Z,5.57
2024-04-09T20:34:08.376Z,5.55
2024-04-09T20:36:37.695Z,5.54
2024-04-09T20:39:04.911Z,5.53
2024-04-09T20:41:35.578Z,5.53
2024-04-09T20:44:03.077Z,5.56
2024-04-09T20:46:32.131Z,5.55
2024-04-09T20:48:58.986Z,5.55
2024-04-09T20:51:30.126Z,5.54
2024-04-09T20:53:56.890Z,5.51
2024-04-09T20:56:32.966Z,5.50
2024-04-09T20:58:59.547Z,5.49
2024-04-09T21:01:28.060Z,5.54
2024-04-09T21:03:56.425Z,5.52
2024-04-09T21:06:25.386Z,5.59
2024-04-09T21:08:53.831Z,5.61
2024-04-09T21:11:22.397Z,5.62
2024-04-09T21:13:48.954Z,5.66
2024-04-09T21:16:19.464Z,5.64
2024-04-09T21:18:46.404Z,5.70
2024-04-09T21:21:14.894Z,5.61
2024-04-09T21:23:41.293Z,5.62
2024-04-09T21:26:11.959Z,5.58
2024-04-09T21:28:38.396Z,5.60
2024-04-09T21:31:07.010Z,5.62
2024-04-09T21:33:33.546Z,5.57
2024-04-09T21:36:02.049Z,5.57
2024-04-09T21:38:28.553Z,5.56
2024-04-09T21:41:05.601Z,5.61
2024-04-09T21:43:34.127Z,5.59
2024-04-09T21:46:02.650Z,5.62
2024-04-09T21:48:29.269Z,5.63
2024-04-09T21:50:58.000Z,5.54
2024-04-09T21:53:24.854Z,5.56
2024-04-09T21:55:53.661Z,5.56
2024-04-09T21:58:20.124Z,5.58
2024-04-09T22:00:54.198Z,5.56
2024-04-09T22:03:20.826Z,5.55
2024-04-09T22:05:50.472Z,5.55
2024-04-09T22:08:17.048Z,5.52
2024-04-09T22:10:46.805Z,5.57
2024-04-09T22:13:13.276Z,5.56
2024-04-09T22:15:42.479Z,5.61
2024-04-09T22:18:11.627Z,5.55
2024-04-09T22:20:40.854Z,5.58
2024-04-09T22:23:07.927Z,5.51
2024-04-09T22:25:36.429Z,5.54
2024-04-09T22:28:02.981Z,5.51
2024-04-09T22:30:31.438Z,5.47
2024-04-09T22:32:58.510Z,5.51
2024-04-09T22:35:29.344Z,5.51
2024-04-09T22:37:55.976Z,5.52
2024-04-09T22:40:25.012Z,5.56
2024-04-09T22:42:51.418Z,5.53
2024-04-09T22:45:20.086Z,5.58
2024-04-09T22:47:46.672Z,5.52
2024-04-09T22:50:15.212Z,5.52
2024-04-09T22:52:44.770Z,5.54
2024-04-09T22:55:13.230Z,5.48
2024-04-09T22:57:42.341Z,5.53
2024-04-09T23:00:13.002Z,5.50
2024-04-09T23:02:39.753Z,5.47
2024-04-09T23:05:10.672Z,5.52
2024-04-09T23:07:37.249Z,5.47
2024-04-09T23:10:08.522Z,5.51
2024-04-09T23:12:36.106Z,5.56
2024-04-09T23:15:04.687Z,5.45
2024-04-09T23:17:31.230Z,5.50
2024-04-09T23:19:59.831Z,5.48
2024-04-09T23:22:26.268Z,5.47
2024-04-09T23:24:55.241Z,5.48
2024-04-09T23:27:23.629Z,5.40
2024-04-09T23:29:52.097Z,5.45
2024-04-09T23:32:18.786Z,5.43
2024-04-09T23:34:47.493Z,5.44
2024-04-09T23:37:13.936Z,5.34
2024-04-09T23:39:42.359Z,5.33
2024-04-09T23:42:08.719Z,5.33
2024-04-09T23:44:39.187Z,5.34
2024-04-09T23:47:05.772Z,5.37
2024-04-09T23:49:34.225Z,5.38
2024-04-09T23:52:00.612Z,5.40
2024-04-09T23:54:29.016Z,5.35
2024-04-09T23:56:55.489Z,5.39
2024-04-09T23:59:24.020Z,5.36
